Time;durP1;ratioP1;P1;durP2;ratioP2;P2;SDS_P1;SDS_P2;PMS_P1;PMS_P2;Temp;Humidity;BMP_temperature;BMP_pressure;BME280_temperature;BME280_humidity;BME280_pressure;Samples;Min_cycle;Max_cycle;Signal;HPM_P1;HPM_P2
2022/03/14 00:02:21;;;;;;;22.90;14.70;;;9.50;66.20;;;;;;5012997;28;20470;-39
2022/03/14 00:04:51;;;;;;;20.85;13.60;;;9.50;66.20;;;;;;5013645;28;20041;-39
2022/03/14 00:07:18;;;;;;;23.48;14.80;;;9.50;66.80;;;;;;5014169;28;20050;-39
2022/03/14 00:09:45;;;;;;;22.38;13.57;;;9.50;66.40;;;;;;5012552;28;20388;-39
2022/03/14 00:12:19;;;;;;;20.83;13.40;;;9.40;66.60;;;;;;5012053;28;20099;-40
2022/03/14 00:15:13;;;;;;;22.42;13.82;;;9.40;67.40;;;;;;5013244;28;20042;-40
2022/03/14 00:17:41;;;;;;;18.80;12.18;;;9.40;68.60;;;;;;5028935;28;20488;-40
2022/03/14 00:20:10;;;;;;;17.17;11.77;;;9.40;68.80;;;;;;5013332;28;20041;-40
2022/03/14 00:22:37;;;;;;;20.65;11.63;;;9.40;69.40;;;;;;5012520;28;20466;-40
2022/03/14 00:25:04;;;;;;;17.20;12.07;;;9.40;70.10;;;;;;5011298;28;20093;-39
2022/03/14 00:27:31;;;;;;;17.30;10.38;;;9.40;69.80;;;;;;5012581;28;20052;-40
2022/03/14 00:29:58;;;;;;;17.42;11.77;;;9.40;70.50;;;;;;5012362;28;20038;-40
2022/03/14 00:32:26;;;;;;;18.48;11.73;;;9.40;71.30;;;;;;5013123;28;20049;-40
2022/03/14 00:34:53;;;;;;;15.38;10.43;;;9.50;71.60;;;;;;5011426;28;20519;-40
2022/03/14 00:37:19;;;;;;;13.23;9.43;;;9.50;71.50;;;;;;5013588;28;20046;-40
2022/03/14 00:39:47;;;;;;;15.10;9.45;;;9.50;72.40;;;;;;5011968;28;20041;-40
2022/03/14 00:42:14;;;;;;;12.55;9.10;;;9.50;73.20;;;;;;5008693;28;20451;-40
2022/03/14 00:44:41;;;;;;;14.38;9.07;;;9.60;74.00;;;;;;5012847;28;20080;-39
2022/03/14 00:47:08;;;;;;;10.70;7.53;;;9.60;74.20;;;;;;5010610;28;20117;-39
2022/03/14 00:49:36;;;;;;;12.57;7.47;;;9.60;74.40;;;;;;5011070;28;20049;-40
2022/03/14 00:52:03;;;;;;;10.48;7.38;;;9.70;74.90;;;;;;5011331;28;20058;-40
2022/03/14 00:54:30;;;;;;;10.75;6.57;;;9.70;75.20;;;;;;5012900;28;20117;-39
2022/03/14 00:56:57;;;;;;;8.60;6.55;;;9.70;75.00;;;;;;5010869;28;20042;-40
2022/03/14 00:59:25;;;;;;;9.30;6.53;;;9.70;75.40;;;;;;5013061;28;20077;-40
2022/03/14 01:01:51;;;;;;;9.02;6.47;;;9.80;76.10;;;;;;5012300;28;20085;-39
2022/03/14 01:04:18;;;;;;;9.70;6.40;;;9.80;76.40;;;;;;5012363;28;20042;-40
2022/03/14 01:06:46;;;;;;;13.45;6.35;;;9.80;76.50;;;;;;5011004;28;20138;-40
2022/03/14 01:09:14;;;;;;;10.73;6.18;;;9.80;76.70;;;;;;5012361;28;20051;-39
2022/03/14 01:11:41;;;;;;;8.13;6.30;;;9.80;76.70;;;;;;5009116;28;20052;-40
2022/03/14 01:14:08;;;;;;;8.88;5.55;;;9.90;76.80;;;;;;5011393;28;20044;-40
2022/03/14 01:16:35;;;;;;;8.82;5.68;;;9.90;77.10;;;;;;5009173;28;20046;-39
2022/03/14 01:19:02;;;;;;;8.18;6.18;;;9.90;77.60;;;;;;5011140;28;20092;-40
2022/03/14 01:21:30;;;;;;;7.93;5.80;;;9.90;78.10;;;;;;5012675;28;20045;-40
2022/03/14 01:23:58;;;;;;;16.45;5.80;;;9.90;78.30;;;;;;5012249;28;20048;-40
2022/03/14 01:26:24;;;;;;;7.50;5.45;;;9.90;78.60;;;;;;5011481;28;20054;-40
2022/03/14 01:28:51;;;;;;;8.70;6.13;;;9.90;79.40;;;;;;5011264;28;20386;-40
2022/03/14 01:31:18;;;;;;;8.85;6.15;;;10.00;79.90;;;;;;5011385;28;20053;-41
2022/03/14 01:33:45;;;;;;;7.10;5.32;;;10.00;79.80;;;;;;5011487;28;20056;-39
2022/03/14 01:36:12;;;;;;;7.13;5.35;;;10.00;80.20;;;;;;5012430;28;20056;-40
2022/03/14 01:38:39;;;;;;;8.35;5.50;;;10.00;81.30;;;;;;5012303;28;20533;-40
2022/03/14 01:41:07;;;;;;;7.43;5.50;;;10.00;80.90;;;;;;5011872;28;20045;-40
2022/03/14 01:43:33;;;;;;;7.38;5.03;;;10.00;81.50;;;;;;5005669;28;20444;-40
2022/03/14 01:46:00;;;;;;;8.27;5.57;;;10.00;81.60;;;;;;5006460;28;20056;-40
2022/03/14 01:48:27;;;;;;;6.35;5.07;;;10.00;81.60;;;;;;5011239;28;20128;-39
2022/03/14 01:50:53;;;;;;;7.65;5.55;;;10.10;82.20;;;;;;5010423;28;20034;-40
2022/03/14 01:53:21;;;;;;;8.63;5.10;;;10.10;82.90;;;;;;5010684;28;20148;-39
2022/03/14 01:55:47;;;;;;;6.13;4.75;;;10.00;82.70;;;;;;5021114;28;20042;-39
2022/03/14 01:58:16;;;;;;;6.28;4.70;;;10.10;82.80;;;;;;5004054;28;20133;-40
2022/03/14 02:00:43;;;;;;;6.15;4.25;;;10.10;82.80;;;;;;5002916;28;20046;-40
2022/03/14 02:03:09;;;;;;;8.55;5.15;;;10.10;82.90;;;;;;5011054;28;20041;-40
2022/03/14 02:05:37;;;;;;;8.18;5.18;;;10.10;83.40;;;;;;5010411;28;20050;-40
2022/03/14 02:08:04;;;;;;;8.50;5.03;;;10.10;83.90;;;;;;5012158;28;20053;-40
2022/03/14 02:10:31;;;;;;;6.65;5.00;;;10.00;84.00;;;;;;5011885;28;20052;-40
2022/03/14 02:12:58;;;;;;;7.03;4.70;;;10.10;84.20;;;;;;5011110;28;20045;-39
2022/03/14 02:15:26;;;;;;;6.93;4.85;;;10.00;84.10;;;;;;5010025;28;20137;-39
2022/03/14 02:17:52;;;;;;;6.15;4.47;;;10.00;84.60;;;;;;5012166;28;20072;-39
2022/03/14 02:20:21;;;;;;;7.28;4.97;;;10.00;85.10;;;;;;5015720;28;20077;-39
2022/03/14 02:22:47;;;;;;;9.35;4.55;;;10.00;85.30;;;;;;5014126;28;20100;-39
2022/03/14 02:25:14;;;;;;;6.68;4.90;;;10.10;85.20;;;;;;5013854;28;20058;-40
2022/03/14 02:27:46;;;;;;;5.95;4.72;;;10.10;86.00;;;;;;5014626;28;20450;-39
2022/03/14 02:30:13;;;;;;;6.38;4.50;;;10.10;86.10;;;;;;5014853;28;20050;-39
2022/03/14 02:32:41;;;;;;;6.85;4.72;;;10.00;86.00;;;;;;5011362;28;20445;-39
2022/03/14 02:35:08;;;;;;;7.70;4.85;;;10.10;86.70;;;;;;5015629;28;20103;-39
2022/03/14 02:37:36;;;;;;;8.98;4.80;;;10.10;86.80;;;;;;5014471;28;20050;-39
2022/03/14 02:40:03;;;;;;;5.57;4.00;;;10.00;87.40;;;;;;5009899;28;20056;-40
2022/03/14 02:42:30;;;;;;;5.32;4.53;;;10.10;87.90;;;;;;5015618;28;20042;-40
2022/03/14 02:44:56;;;;;;;7.88;4.55;;;10.10;88.20;;;;;;5014044;28;20050;-40
2022/03/14 02:47:23;;;;;;;6.40;4.13;;;10.10;88.40;;;;;;5014844;28;20050;-40
2022/03/14 02:49:50;;;;;;;5.93;4.55;;;10.10;88.50;;;;;;5011344;28;20048;-40
2022/03/14 02:52:17;;;;;;;5.72;4.40;;;10.10;88.90;;;;;;5014954;28;20050;-40
2022/03/14 02:54:45;;;;;;;5.63;4.45;;;10.10;89.30;;;;;;5014181;28;20470;-40
2022/03/14 02:57:12;;;;;;;4.93;4.03;;;10.10;89.60;;;;;;5005911;28;20053;-41
2022/03/14 02:59:38;;;;;;;5.82;3.92;;;10.10;89.60;;;;;;5013513;28;20040;-40
2022/03/14 03:02:06;;;;;;;5.40;4.03;;;10.10;89.50;;;;;;5012416;28;20474;-40
2022/03/14 03:04:33;;;;;;;5.68;4.13;;;10.20;90.00;;;;;;5015119;28;20544;-39
2022/03/14 03:06:59;;;;;;;6.53;4.30;;;10.20;89.90;;;;;;5012676;28;20057;-39
2022/03/14 03:09:27;;;;;;;5.40;3.72;;;10.20;90.20;;;;;;5009043;28;20092;-39
2022/03/14 03:11:55;;;;;;;6.70;4.45;;;10.20;90.20;;;;;;5014483;28;20415;-39
2022/03/14 03:14:21;;;;;;;6.50;4.18;;;10.20;90.70;;;;;;5013778;28;20073;-40
2022/03/14 03:16:49;;;;;;;5.70;4.05;;;10.20;90.20;;;;;;5013571;28;20045;-40
2022/03/14 03:19:16;;;;;;;5.85;4.25;;;10.20;90.30;;;;;;5015280;28;20046;-40
2022/03/14 03:21:43;;;;;;;4.63;3.97;;;10.20;90.50;;;;;;5012268;28;20053;-40
2022/03/14 03:24:12;;;;;;;5.30;4.47;;;10.20;90.50;;;;;;5014121;28;20054;-40
2022/03/14 03:26:42;;;;;;;7.22;4.32;;;10.20;90.80;;;;;;5012998;28;20053;-40
2022/03/14 03:29:10;;;;;;;6.35;4.40;;;10.20;90.80;;;;;;5011728;28;20041;-40
2022/03/14 03:31:37;;;;;;;5.30;4.18;;;10.20;90.70;;;;;;5013431;28;20617;-40
2022/03/14 03:34:04;;;;;;;5.53;4.07;;;10.20;91.00;;;;;;5014444;28;20124;-40
2022/03/14 03:36:31;;;;;;;5.57;4.50;;;10.20;91.20;;;;;;5014268;28;20045;-40
2022/03/14 03:38:58;;;;;;;4.72;4.00;;;10.20;91.30;;;;;;5013416;28;20048;-40
2022/03/14 03:41:25;;;;;;;7.03;4.13;;;10.20;91.20;;;;;;5011989;28;20041;-40
2022/03/14 03:43:51;;;;;;;5.30;4.18;;;10.20;91.40;;;;;;5014348;28;20045;-40
2022/03/14 03:46:20;;;;;;;6.43;3.95;;;10.20;91.40;;;;;;5014119;28;20390;-40
2022/03/14 03:48:46;;;;;;;5.78;4.47;;;10.20;91.40;;;;;;5014392;28;20041;-40
2022/03/14 03:51:13;;;;;;;6.25;3.97;;;10.20;91.70;;;;;;5012007;28;20081;-40
2022/03/14 03:53:40;;;;;;;6.00;4.38;;;10.20;91.70;;;;;;5013225;28;20482;-41
2022/03/14 03:56:06;;;;;;;6.82;4.30;;;10.10;91.80;;;;;;5012743;28;20042;-40
2022/03/14 03:58:34;;;;;;;5.55;4.13;;;10.10;91.90;;;;;;5013810;28;20559;-40
2022/03/14 04:01:00;;;;;;;4.60;4.03;;;10.10;91.90;;;;;;5013810;28;20417;-40
2022/03/14 04:03:28;;;;;;;5.53;3.80;;;10.10;91.90;;;;;;5012076;28;20128;-40
2022/03/14 04:05:55;;;;;;;8.43;3.97;;;10.10;92.10;;;;;;5012526;28;20052;-40
2022/03/14 04:08:22;;;;;;;6.60;4.57;;;10.10;92.10;;;;;;5013881;28;20046;-40
2022/03/14 04:10:53;;;;;;;4.60;3.90;;;10.10;92.10;;;;;;5012392;28;20073;-40
2022/03/14 04:13:21;;;;;;;5.47;3.60;;;10.00;92.30;;;;;;5010144;28;20045;-40
2022/03/14 04:15:51;;;;;;;5.53;3.90;;;10.10;92.20;;;;;;5012632;28;20129;-40
2022/03/14 04:18:18;;;;;;;5.10;3.85;;;10.00;92.50;;;;;;5013940;28;20105;-40
2022/03/14 04:20:47;;;;;;;3.78;3.35;;;10.10;92.70;;;;;;5005936;28;20042;-40
2022/03/14 04:23:14;;;;;;;5.07;3.67;;;10.10;92.70;;;;;;5013153;28;20047;-40
2022/03/14 04:25:40;;;;;;;4.97;3.50;;;10.10;92.60;;;;;;5009882;28;20065;-40
2022/03/14 04:28:07;;;;;;;4.55;3.45;;;10.10;92.80;;;;;;5010965;28;20430;-40
2022/03/14 04:30:34;;;;;;;4.93;3.78;;;10.00;92.70;;;;;;5008531;28;20050;-40
2022/03/14 04:33:01;;;;;;;4.45;3.60;;;10.10;92.70;;;;;;5011580;28;20050;-40
2022/03/14 04:35:28;;;;;;;3.60;3.28;;;10.10;93.10;;;;;;5012074;28;20053;-40
2022/03/14 04:37:57;;;;;;;5.10;3.60;;;10.00;92.80;;;;;;5012585;28;20507;-40
2022/03/14 04:40:24;;;;;;;4.47;3.47;;;10.00;93.10;;;;;;5011434;28;20058;-40
2022/03/14 04:42:50;;;;;;;3.92;3.30;;;10.00;93.30;;;;;;5012786;28;20053;-40
2022/03/14 04:45:17;;;;;;;4.45;3.58;;;10.00;93.30;;;;;;5012145;28;20050;-40
2022/03/14 04:47:44;;;;;;;4.53;3.75;;;10.00;93.40;;;;;;5012053;28;20141;-40
2022/03/14 04:50:11;;;;;;;4.28;3.20;;;10.00;93.40;;;;;;5012344;28;20042;-40
2022/03/14 04:52:38;;;;;;;6.28;4.10;;;10.00;93.70;;;;;;5028126;28;20045;-40
2022/03/14 04:55:06;;;;;;;5.55;3.50;;;10.00;93.60;;;;;;5012340;28;20045;-40
2022/03/14 04:57:33;;;;;;;5.63;3.80;;;10.00;93.70;;;;;;5009488;28;20046;-40
2022/03/14 05:00:00;;;;;;;4.38;3.35;;;10.00;93.90;;;;;;5012221;28;20484;-40
2022/03/14 05:02:27;;;;;;;5.35;3.60;;;9.90;94.10;;;;;;5011442;28;20053;-40
2022/03/14 05:04:53;;;;;;;4.72;3.60;;;9.90;94.40;;;;;;5013154;28;20058;-40
2022/03/14 05:07:20;;;;;;;5.03;3.60;;;10.00;94.40;;;;;;5028107;28;20072;-40
2022/03/14 05:09:47;;;;;;;4.05;3.50;;;10.00;94.60;;;;;;5011692;28;20411;-40
2022/03/14 05:12:15;;;;;;;5.82;3.67;;;9.90;94.70;;;;;;5010454;28;20066;-40
2022/03/14 05:14:42;;;;;;;5.60;3.45;;;10.00;94.90;;;;;;5012293;28;20129;-40
2022/03/14 05:17:09;;;;;;;5.13;3.50;;;9.90;94.90;;;;;;5012677;28;20041;-40
2022/03/14 05:19:36;;;;;;;4.80;3.58;;;9.90;95.00;;;;;;5011589;28;20052;-40
2022/03/14 05:22:04;;;;;;;5.95;3.58;;;9.90;95.40;;;;;;5011097;28;20102;-40
2022/03/14 05:24:30;;;;;;;5.35;4.20;;;9.90;95.40;;;;;;5011177;28;20073;-40
2022/03/14 05:26:58;;;;;;;6.07;4.22;;;9.90;95.50;;;;;;5010104;28;20054;-40
2022/03/14 05:29:26;;;;;;;5.82;4.00;;;9.90;95.60;;;;;;5009012;28;20586;-40
2022/03/14 05:31:52;;;;;;;6.20;3.95;;;9.90;96.00;;;;;;5008937;28;20059;-40
2022/03/14 05:34:19;;;;;;;4.65;4.03;;;9.90;96.00;;;;;;5011112;28;20108;-40
2022/03/14 05:36:46;;;;;;;5.53;4.50;;;9.90;96.40;;;;;;5008139;28;20458;-40
2022/03/14 05:39:13;;;;;;;6.30;4.55;;;9.90;96.70;;;;;;5008066;28;20136;-40
2022/03/14 05:41:39;;;;;;;5.15;4.15;;;9.80;96.90;;;;;;5008186;28;20050;-40
2022/03/14 05:44:06;;;;;;;5.47;4.40;;;9.80;97.20;;;;;;5011321;28;20492;-39
2022/03/14 05:46:34;;;;;;;5.85;4.68;;;9.80;97.60;;;;;;5011360;28;20048;-39
2022/03/14 05:49:01;;;;;;;6.15;4.38;;;9.80;97.90;;;;;;5010634;28;20046;-39
2022/03/14 05:51:28;;;;;;;6.65;5.28;;;9.80;98.30;;;;;;5007566;28;20040;-39
2022/03/14 05:53:55;;;;;;;6.20;5.10;;;9.80;98.30;;;;;;5011722;28;20150;-39
2022/03/14 05:56:22;;;;;;;5.78;4.57;;;9.80;98.70;;;;;;5010103;28;20064;-39
2022/03/14 05:58:48;;;;;;;6.38;5.03;;;9.80;99.00;;;;;;5011642;28;20577;-38
2022/03/14 06:01:15;;;;;;;8.05;5.40;;;9.80;99.10;;;;;;5009002;28;20046;-38
2022/03/14 06:03:43;;;;;;;8.55;4.63;;;9.80;99.40;;;;;;5010646;28;20458;-38
2022/03/14 06:06:10;;;;;;;9.18;5.43;;;9.80;99.70;;;;;;5007349;28;20039;-38
2022/03/14 06:08:37;;;;;;;7.28;4.97;;;9.70;99.90;;;;;;5009773;28;20112;-38
2022/03/14 06:11:05;;;;;;;6.63;4.78;;;9.70;99.90;;;;;;5010153;28;20092;-39
2022/03/14 06:13:32;;;;;;;5.68;5.07;;;9.70;99.90;;;;;;5005965;28;20037;-39
2022/03/14 06:15:59;;;;;;;5.57;4.40;;;9.70;99.90;;;;;;5011179;28;20053;-39
2022/03/14 06:18:26;;;;;;;5.30;4.80;;;9.70;99.90;;;;;;5009401;28;20041;-38
2022/03/14 06:20:54;;;;;;;5.85;4.95;;;9.70;99.90;;;;;;5009349;28;20101;-38
2022/03/14 06:23:20;;;;;;;7.75;5.53;;;9.70;99.90;;;;;;5008185;28;20056;-38
2022/03/14 06:25:49;;;;;;;7.65;5.55;;;9.70;99.90;;;;;;5010386;28;20049;-39
2022/03/14 06:28:16;;;;;;;7.00;5.55;;;9.70;99.90;;;;;;5010109;28;20087;-38
2022/03/14 06:30:42;;;;;;;7.10;4.97;;;9.60;99.90;;;;;;5009350;28;20060;-38
2022/03/14 06:33:09;;;;;;;7.35;5.72;;;9.60;99.90;;;;;;5010562;28;20056;-38
2022/03/14 06:35:36;;;;;;;7.13;4.80;;;9.60;99.90;;;;;;5010007;28;20061;-38
2022/03/14 06:38:05;;;;;;;7.32;5.78;;;9.60;99.90;;;;;;5007739;28;20070;-38
2022/03/14 06:40:32;;;;;;;5.85;5.18;;;9.70;99.90;;;;;;5009461;28;20057;-38
2022/03/14 06:42:59;;;;;;;7.38;5.65;;;9.60;99.90;;;;;;5005796;28;20124;-38
2022/03/14 06:45:26;;;;;;;7.50;5.07;;;9.60;99.90;;;;;;5010231;28;20721;-37
2022/03/14 06:47:53;;;;;;;6.95;5.72;;;9.60;99.90;;;;;;5009026;28;20046;-37
2022/03/14 06:50:20;;;;;;;6.65;5.35;;;9.60;99.90;;;;;;5005730;28;20053;-39
2022/03/14 06:52:47;;;;;;;8.02;5.70;;;9.60;99.90;;;;;;4983913;28;20081;-38
2022/03/14 06:55:16;;;;;;;7.47;5.95;;;9.60;99.90;;;;;;4995472;28;20050;-38
2022/03/14 06:57:42;;;;;;;7.15;5.72;;;9.60;99.90;;;;;;5003697;28;20060;-37
2022/03/14 07:00:11;;;;;;;8.20;5.93;;;9.50;99.90;;;;;;5004852;28;20048;-38
2022/03/14 07:02:39;;;;;;;7.20;5.80;;;9.60;99.90;;;;;;5005039;28;20116;-37
2022/03/14 07:05:07;;;;;;;7.57;5.82;;;9.60;99.90;;;;;;5012295;28;20053;-38
2022/03/14 07:07:34;;;;;;;6.93;5.85;;;9.60;99.90;;;;;;5014256;28;20096;-37
2022/03/14 07:10:00;;;;;;;6.93;5.47;;;9.60;99.90;;;;;;5011642;28;20046;-38
2022/03/14 07:12:28;;;;;;;6.93;5.60;;;9.60;99.90;;;;;;5011303;28;20385;-38
2022/03/14 07:14:55;;;;;;;7.20;5.93;;;9.60;99.90;;;;;;5008483;28;20068;-37
2022/03/14 07:17:22;;;;;;;7.95;5.55;;;9.60;99.90;;;;;;5008889;28;20095;-37
2022/03/14 07:19:49;;;;;;;7.90;5.90;;;9.60;99.90;;;;;;5010986;28;20088;-37
2022/03/14 07:22:19;;;;;;;9.30;6.28;;;9.60;99.90;;;;;;5008324;28;20081;-37
2022/03/14 07:24:47;;;;;;;7.47;5.40;;;9.60;99.90;;;;;;5003182;28;20216;-37
2022/03/14 07:27:14;;;;;;;7.55;6.15;;;9.60;99.90;;;;;;5008635;28;20045;-38
2022/03/14 07:29:42;;;;;;;8.55;6.60;;;9.60;99.90;;;;;;5009572;28;20133;-38
2022/03/14 07:32:09;;;;;;;9.23;6.05;;;9.70;99.90;;;;;;5011245;28;20054;-38
2022/03/14 07:34:36;;;;;;;9.73;6.57;;;9.70;99.90;;;;;;5010623;28;20503;-38
2022/03/14 07:37:03;;;;;;;7.88;6.57;;;9.70;99.90;;;;;;5003623;28;20104;-38
2022/03/14 07:39:30;;;;;;;10.02;6.47;;;9.70;99.90;;;;;;5007652;28;20048;-38
2022/03/14 07:41:57;;;;;;;7.95;6.20;;;9.70;99.90;;;;;;5008102;28;20045;-38
2022/03/14 07:44:24;;;;;;;8.95;6.93;;;9.80;99.90;;;;;;5010384;28;20058;-38
2022/03/14 07:46:52;;;;;;;9.00;7.20;;;9.80;99.90;;;;;;5009726;28;20042;-39
2022/03/14 07:49:20;;;;;;;10.35;6.07;;;9.80;99.90;;;;;;5003687;28;20048;-39
2022/03/14 07:51:47;;;;;;;7.40;6.03;;;9.80;99.90;;;;;;5007510;28;20041;-38
2022/03/14 07:54:14;;;;;;;9.25;6.68;;;9.80;99.90;;;;;;5008587;28;20060;-38
2022/03/14 07:56:42;;;;;;;8.95;6.63;;;9.80;99.90;;;;;;5008234;28;20034;-38
2022/03/14 07:59:09;;;;;;;9.23;7.22;;;9.80;99.90;;;;;;5008425;28;20049;-38
2022/03/14 08:01:36;;;;;;;10.93;7.25;;;9.80;99.90;;;;;;5008183;28;20041;-38
2022/03/14 08:04:04;;;;;;;9.50;6.95;;;9.80;99.90;;;;;;5008787;28;20454;-38
2022/03/14 08:06:42;;;;;;;10.40;7.18;;;9.90;99.90;;;;;;5003907;28;20062;-38
2022/03/14 08:09:09;;;;;;;9.95;7.53;;;9.90;99.90;;;;;;5010914;28;20045;-38
2022/03/14 08:11:38;;;;;;;9.63;6.68;;;9.90;99.90;;;;;;5010179;28;20058;-38
2022/03/14 08:14:05;;;;;;;7.82;6.13;;;9.90;99.90;;;;;;5008459;28;20049;-38
2022/03/14 08:16:31;;;;;;;9.18;7.15;;;10.00;99.90;;;;;;5006678;28;20492;-38
2022/03/14 08:18:58;;;;;;;10.80;7.90;;;10.00;99.90;;;;;;5010835;28;20046;-38
2022/03/14 08:21:26;;;;;;;9.07;6.97;;;10.00;99.90;;;;;;5009794;28;20492;-37
2022/03/14 08:23:53;;;;;;;10.38;7.50;;;10.00;99.90;;;;;;5005264;28;20058;-38
2022/03/14 08:26:21;;;;;;;10.30;7.57;;;10.00;99.90;;;;;;5010805;28;20050;-38
2022/03/14 08:28:48;;;;;;;9.20;7.78;;;10.00;99.90;;;;;;5003381;28;20054;-37
2022/03/14 08:31:15;;;;;;;10.30;7.03;;;10.00;99.90;;;;;;5009650;28;20042;-37
2022/03/14 08:33:44;;;;;;;10.75;7.80;;;9.90;99.90;;;;;;5008762;28;20490;-38
2022/03/14 08:36:11;;;;;;;9.85;7.38;;;9.90;99.90;;;;;;5009009;28;20108;-39
2022/03/14 08:38:40;;;;;;;12.77;8.10;;;9.90;99.90;;;;;;5009853;28;20125;-38
2022/03/14 08:41:07;;;;;;;11.07;7.10;;;10.00;99.90;;;;;;5003614;28;20421;-39
2022/03/14 08:43:34;;;;;;;8.30;7.25;;;9.90;99.90;;;;;;5002432;28;20038;-38
2022/03/14 08:46:01;;;;;;;9.00;7.43;;;9.90;99.90;;;;;;5003535;28;20046;-39
2022/03/14 08:48:27;;;;;;;8.70;7.40;;;9.90;99.90;;;;;;5005363;28;20077;-38
2022/03/14 08:50:54;;;;;;;8.93;7.65;;;9.90;99.90;;;;;;5006545;28;20061;-38
2022/03/14 08:53:21;;;;;;;9.52;7.72;;;10.00;99.90;;;;;;5007436;28;20057;-38
2022/03/14 08:55:49;;;;;;;9.77;7.97;;;10.00;99.90;;;;;;5007358;28;20044;-39
2022/03/14 08:58:15;;;;;;;10.95;9.55;;;10.00;99.90;;;;;;5009676;28;20044;-38
2022/03/14 09:00:42;;;;;;;14.27;10.77;;;10.00;99.90;;;;;;5009141;28;20049;-38
2022/03/14 09:03:09;;;;;;;13.77;11.43;;;10.00;99.90;;;;;;5006766;28;20038;-39
2022/03/14 09:05:36;;;;;;;15.50;13.13;;;10.00;99.90;;;;;;5004633;28;20068;-37
2022/03/14 09:08:02;;;;;;;18.63;14.57;;;10.00;99.90;;;;;;5007748;28;20710;-38
2022/03/14 09:10:31;;;;;;;19.17;15.30;;;10.00;99.90;;;;;;5008693;28;20048;-38
2022/03/14 09:12:59;;;;;;;18.52;14.02;;;9.90;99.90;;;;;;5006547;28;20058;-38
2022/03/14 09:15:25;;;;;;;21.63;16.00;;;9.90;99.90;;;;;;5002309;28;20359;-39
2022/03/14 09:17:54;;;;;;;21.33;16.25;;;9.90;99.90;;;;;;5005272;28;20557;-39
2022/03/14 09:20:21;;;;;;;19.95;15.77;;;9.90;99.90;;;;;;5007352;28;20050;-39
2022/03/14 09:22:48;;;;;;;22.42;16.65;;;9.90;99.90;;;;;;5007016;28;20056;-40
2022/03/14 09:25:15;;;;;;;24.55;17.80;;;9.90;99.90;;;;;;5007037;28;20060;-46
2022/03/14 09:27:42;;;;;;;22.30;16.95;;;9.90;99.90;;;;;;5004668;28;20125;-43
2022/03/14 09:30:11;;;;;;;26.45;18.65;;;9.90;99.90;;;;;;5008841;28;20046;-42
2022/03/14 09:32:38;;;;;;;24.30;18.50;;;9.90;99.90;;;;;;5008268;28;20070;-40
2022/03/14 09:35:05;;;;;;;26.63;18.05;;;9.90;99.90;;;;;;5004182;28;20077;-40
2022/03/14 09:37:32;;;;;;;29.63;20.30;;;9.90;99.90;;;;;;5006895;28;20054;-39
2022/03/14 09:39:59;;;;;;;29.25;19.73;;;9.90;99.90;;;;;;5008117;28;20069;-40
2022/03/14 09:42:25;;;;;;;27.27;19.70;;;9.80;99.90;;;;;;5007177;28;20034;-38
2022/03/14 09:44:53;;;;;;;31.70;20.92;;;9.80;99.90;;;;;;5002540;28;20041;-39
2022/03/14 09:47:22;;;;;;;31.90;21.45;;;9.70;99.90;;;;;;5009658;28;20359;-40
2022/03/14 09:49:49;;;;;;;60.25;24.60;;;9.80;99.90;;;;;;5005061;28;20115;-40
2022/03/14 09:52:16;;;;;;;35.85;22.45;;;9.80;99.90;;;;;;5001237;28;20394;-40
2022/03/14 09:54:43;;;;;;;31.73;21.20;;;9.90;99.90;;;;;;5008169;28;20046;-39
2022/03/14 09:57:10;;;;;;;31.33;20.02;;;9.80;99.90;;;;;;5009433;28;20034;-40
2022/03/14 09:59:36;;;;;;;33.05;21.33;;;9.80;99.90;;;;;;5009572;28;20056;-38
2022/03/14 10:02:04;;;;;;;31.80;19.67;;;9.80;99.90;;;;;;5007384;28;20077;-39
2022/03/14 10:04:32;;;;;;;30.42;18.88;;;9.80;99.90;;;;;;5006809;28;20551;-38
2022/03/14 10:06:58;;;;;;;32.05;19.90;;;9.90;99.90;;;;;;5009357;28;20049;-39
2022/03/14 10:09:25;;;;;;;31.50;19.45;;;9.90;99.90;;;;;;5004834;28;20121;-38
2022/03/14 10:11:52;;;;;;;30.17;19.95;;;9.90;99.90;;;;;;5006291;28;20045;-38
2022/03/14 10:14:19;;;;;;;31.05;19.02;;;9.90;99.90;;;;;;5008651;28;20041;-39
2022/03/14 10:16:47;;;;;;;27.75;17.77;;;9.90;99.90;;;;;;5007107;28;20050;-38
2022/03/14 10:19:20;;;;;;;28.55;17.52;;;9.90;99.90;;;;;;5006123;28;20393;-38
2022/03/14 10:21:50;;;;;;;28.65;17.67;;;9.90;99.90;;;;;;5006341;28;20046;-38
2022/03/14 10:24:21;;;;;;;29.65;16.95;;;10.00;99.90;;;;;;5007047;28;20440;-38
2022/03/14 10:26:48;;;;;;;32.00;17.53;;;10.00;99.90;;;;;;5007149;28;20049;-38
2022/03/14 10:29:17;;;;;;;30.42;17.45;;;9.90;99.90;;;;;;5008384;28;20049;-39
2022/03/14 10:31:45;;;;;;;30.65;17.30;;;10.00;99.90;;;;;;5005542;28;20116;-39
2022/03/14 10:34:12;;;;;;;27.88;15.48;;;10.00;99.90;;;;;;5009664;28;20124;-42
2022/03/14 10:36:45;;;;;;;29.75;14.63;;;10.00;99.90;;;;;;5008412;28;20081;-39
2022/03/14 10:39:18;;;;;;;30.08;15.52;;;10.10;99.90;;;;;;5011877;28;20050;-38
2022/03/14 10:41:46;;;;;;;23.58;13.60;;;10.10;99.90;;;;;;5011568;28;20081;-38
2022/03/14 10:44:24;;;;;;;22.00;13.40;;;10.20;99.90;;;;;;5010419;28;20482;-38
2022/03/14 10:46:51;;;;;;;28.38;13.70;;;10.20;99.90;;;;;;5012425;28;20065;-39
2022/03/14 10:49:19;;;;;;;23.98;12.23;;;10.20;99.90;;;;;;5012879;28;20054;-39
2022/03/14 10:51:53;;;;;;;20.95;12.10;;;10.30;99.90;;;;;;5012809;28;20045;-39
2022/03/14 10:54:21;;;;;;;28.15;13.60;;;10.40;99.90;;;;;;5011094;28;20053;-38
2022/03/14 10:57:02;;;;;;;25.75;13.00;;;10.40;99.90;;;;;;5012092;28;20121;-38
2022/03/14 10:59:36;;;;;;;27.67;13.48;;;10.50;99.90;;;;;;5012216;28;20049;-39
2022/03/14 11:02:04;;;;;;;24.08;12.27;;;10.50;99.90;;;;;;5011440;28;20053;-39
2022/03/14 11:04:40;;;;;;;27.10;12.93;;;10.50;99.90;;;;;;5011146;28;20038;-40
2022/03/14 11:07:07;;;;;;;27.02;12.50;;;10.60;99.90;;;;;;5008597;28;20041;-39
2022/03/14 11:09:39;;;;;;;26.08;13.27;;;10.60;99.90;;;;;;5011907;28;20046;-38
2022/03/14 11:12:07;;;;;;;25.50;12.82;;;10.60;99.90;;;;;;5008293;28;20058;-40
2022/03/14 11:14:34;;;;;;;31.23;12.82;;;10.60;99.90;;;;;;5005949;28;20038;-38
2022/03/14 11:17:13;;;;;;;28.35;13.27;;;10.60;99.90;;;;;;5010427;28;20082;-39
2022/03/14 11:19:40;;;;;;;26.60;12.23;;;10.60;99.90;;;;;;5005042;28;20184;-39
2022/03/14 11:22:09;;;;;;;23.70;12.15;;;10.60;99.90;;;;;;5011672;28;20069;-39
2022/03/14 11:24:36;;;;;;;26.80;12.07;;;10.50;99.90;;;;;;5008044;28;20045;-39
2022/03/14 11:27:04;;;;;;;25.98;12.27;;;10.60;99.90;;;;;;5006773;28;20184;-39
2022/03/14 11:29:31;;;;;;;23.00;12.32;;;10.60;99.90;;;;;;5011313;28;20144;-39
2022/03/14 11:31:58;;;;;;;22.17;12.15;;;10.70;99.90;;;;;;5011228;28;20449;-39
2022/03/14 11:34:28;;;;;;;22.48;12.38;;;10.70;99.90;;;;;;5008478;28;20061;-38
2022/03/14 11:36:55;;;;;;;29.40;13.38;;;10.70;99.90;;;;;;5010685;28;20478;-39
2022/03/14 11:39:22;;;;;;;19.55;11.43;;;10.70;99.90;;;;;;5009996;28;20092;-39
2022/03/14 11:41:49;;;;;;;26.90;13.57;;;10.80;99.90;;;;;;5007331;28;20054;-39
2022/03/14 11:44:17;;;;;;;22.40;13.75;;;10.90;99.90;;;;;;5011056;28;20052;-39
2022/03/14 11:46:44;;;;;;;29.75;13.93;;;10.90;99.90;;;;;;5008618;28;20041;-39
2022/03/14 11:49:13;;;;;;;24.27;14.38;;;10.90;99.90;;;;;;5010006;28;20049;-38
2022/03/14 11:51:41;;;;;;;22.42;13.05;;;10.90;99.90;;;;;;5008594;28;20049;-39
2022/03/14 11:54:12;;;;;;;22.10;12.85;;;11.00;99.90;;;;;;5010823;28;20049;-38
2022/03/14 11:56:39;;;;;;;24.98;13.15;;;11.00;99.90;;;;;;5007601;28;20128;-38
2022/03/14 11:59:08;;;;;;;25.45;13.93;;;11.00;99.90;;;;;;5009455;28;20053;-39
2022/03/14 12:01:42;;;;;;;24.50;13.60;;;11.00;99.90;;;;;;5008711;28;20762;-39
2022/03/14 12:04:10;;;;;;;26.42;15.25;;;11.10;99.90;;;;;;5010578;28;20497;-38
2022/03/14 12:07:05;;;;;;;25.70;15.63;;;11.10;99.90;;;;;;4999638;28;20655;-39
2022/03/14 12:09:51;;;;;;;23.42;15.80;;;11.10;99.90;;;;;;5003136;28;20042;-39
2022/03/14 12:12:33;;;;;;;25.92;16.02;;;11.10;99.90;;;;;;4991632;28;20046;-39
2022/03/14 12:15:01;;;;;;;30.33;17.67;;;11.20;99.90;;;;;;5011063;28;20064;-39
2022/03/14 12:17:30;;;;;;;28.58;16.15;;;11.20;99.90;;;;;;5012096;28;20077;-38
2022/03/14 12:19:59;;;;;;;27.92;17.73;;;11.20;99.90;;;;;;5010713;28;20809;-39
2022/03/14 12:22:44;;;;;;;26.90;17.67;;;11.20;99.90;;;;;;5009925;28;20057;-39
2022/03/14 12:25:12;;;;;;;31.75;18.67;;;11.20;99.90;;;;;;5009890;28;20067;-39
2022/03/14 12:27:39;;;;;;;32.55;19.02;;;11.20;99.90;;;;;;5011545;28;20045;-39
2022/03/14 12:30:07;;;;;;;26.50;18.83;;;11.30;99.90;;;;;;5010230;28;20041;-39
2022/03/14 12:32:38;;;;;;;36.83;21.52;;;11.40;99.90;;;;;;5011842;28;20129;-39
2022/03/14 12:35:09;;;;;;;28.95;20.00;;;11.40;99.90;;;;;;5009648;28;20044;-39
2022/03/14 12:37:43;;;;;;;;;;;11.50;99.90;;;;;;5010890;28;20042;-39
2022/03/14 12:40:14;;;;;;;32.08;19.90;;;11.50;99.90;;;;;;5010071;28;19925;-40
2022/03/14 12:42:42;;;;;;;26.83;18.57;;;11.60;99.90;;;;;;5010762;28;20141;-39
2022/03/14 12:45:19;;;;;;;29.80;18.55;;;11.70;99.90;;;;;;5010992;28;20297;-40
2022/03/14 12:47:57;;;;;;;33.13;19.58;;;11.90;99.90;;;;;;5008887;28;20530;-38
2022/03/14 12:50:56;;;;;;;30.10;19.23;;;11.90;99.90;;;;;;5007223;28;20401;-39